sensor_id;sensor_type;location;lat;lon;timestamp;temperature;humidity
22908;DHT22;11620;50.050;8.690;2023-04-03T00:02:36;4.20;99.90
22908;DHT22;11620;50.050;8.690;2023-04-03T00:05:22;4.20;99.90
22908;DHT22;11620;50.050;8.690;2023-04-03T00:08:09;4.20;99.90
22908;DHT22;11620;50.050;8.690;2023-04-03T00:10:55;4.20;99.90
22908;DHT22;11620;50.050;8.690;2023-04-03T00:13:42;4.20;99.90
22908;DHT22;11620;50.050;8.690;2023-04-03T00:16:28;4.20;99.90
22908;DHT22;11620;50.050;8.690;2023-04-03T00:19:15;4.20;99.90
22908;DHT22;11620;50.050;8.690;2023-04-03T00:22:01;4.20;99.90
22908;DHT22;11620;50.050;8.690;2023-04-03T00:24:47;4.10;99.90
22908;DHT22;11620;50.050;8.690;2023-04-03T00:27:36;4.10;99.90
22908;DHT22;11620;50.050;8.690;2023-04-03T00:30:23;4.10;99.90
22908;DHT22;11620;50.050;8.690;2023-04-03T00:33:12;4.10;99.90
22908;DHT22;11620;50.050;8.690;2023-04-03T00:35:58;4.10;99.90
22908;DHT22;11620;50.050;8.690;2023-04-03T00:38:45;4.10;99.90
22908;DHT22;11620;50.050;8.690;2023-04-03T00:41:31;4.20;99.90
22908;DHT22;11620;50.050;8.690;2023-04-03T00:45:23;4.20;99.90
22908;DHT22;11620;50.050;8.690;2023-04-03T00:47:30;4.20;99.90
22908;DHT22;11620;50.050;8.690;2023-04-03T00:50:17;4.20;99.90
22908;DHT22;11620;50.050;8.690;2023-04-03T00:53:05;4.20;99.90
22908;DHT22;11620;50.050;8.690;2023-04-03T00:55:54;4.20;99.90
22908;DHT22;11620;50.050;8.690;2023-04-03T00:58:49;4.20;99.90
22908;DHT22;11620;50.050;8.690;2023-04-03T01:01:37;4.20;99.90
22908;DHT22;11620;50.050;8.690;2023-04-03T01:10:07;4.10;99.90
22908;DHT22;11620;50.050;8.690;2023-04-03T01:12:53;4.10;99.90
22908;DHT22;11620;50.050;8.690;2023-04-03T01:15:40;4.10;99.90
22908;DHT22;11620;50.050;8.690;2023-04-03T01:18:26;4.00;99.90
22908;DHT22;11620;50.050;8.690;2023-04-03T01:21:42;4.00;99.90
22908;DHT22;11620;50.050;8.690;2023-04-03T01:24:36;4.00;99.90
22908;DHT22;11620;50.050;8.690;2023-04-03T01:27:24;4.00;99.90
22908;DHT22;11620;50.050;8.690;2023-04-03T01:30:11;4.00;99.90
22908;DHT22;11620;50.050;8.690;2023-04-03T01:32:59;4.00;99.90
22908;DHT22;11620;50.050;8.690;2023-04-03T01:35:45;4.00;99.90
22908;DHT22;11620;50.050;8.690;2023-04-03T01:38:31;4.00;99.90
22908;DHT22;11620;50.050;8.690;2023-04-03T01:41:18;3.90;99.90
22908;DHT22;11620;50.050;8.690;2023-04-03T01:44:04;3.90;99.90
22908;DHT22;11620;50.050;8.690;2023-04-03T01:46:51;3.90;99.90
22908;DHT22;11620;50.050;8.690;2023-04-03T01:49:37;4.00;99.90
22908;DHT22;11620;50.050;8.690;2023-04-03T01:52:23;4.00;99.90
22908;DHT22;11620;50.050;8.690;2023-04-03T01:55:10;4.00;99.90
22908;DHT22;11620;50.050;8.690;2023-04-03T01:57:56;4.00;99.90
22908;DHT22;11620;50.050;8.690;2023-04-03T02:00:43;4.00;99.90
22908;DHT22;11620;50.050;8.690;2023-04-03T02:03:29;4.00;99.90
22908;DHT22;11620;50.050;8.690;2023-04-03T02:06:15;4.00;99.90
22908;DHT22;11620;50.050;8.690;2023-04-03T02:09:03;4.00;99.90
22908;DHT22;11620;50.050;8.690;2023-04-03T02:11:49;4.00;99.90
22908;DHT22;11620;50.050;8.690;2023-04-03T02:14:35;4.00;99.90
22908;DHT22;11620;50.050;8.690;2023-04-03T02:17:22;4.00;99.90
22908;DHT22;11620;50.050;8.690;2023-04-03T02:20:08;4.00;99.90
22908;DHT22;11620;50.050;8.690;2023-04-03T02:22:55;4.00;99.90
22908;DHT22;11620;50.050;8.690;2023-04-03T02:25:41;4.00;99.90
22908;DHT22;11620;50.050;8.690;2023-04-03T02:28:27;4.00;99.90
22908;DHT22;11620;50.050;8.690;2023-04-03T02:31:16;4.00;99.90
22908;DHT22;11620;50.050;8.690;2023-04-03T02:34:02;4.00;99.90
22908;DHT22;11620;50.050;8.690;2023-04-03T02:36:48;4.00;99.90
22908;DHT22;11620;50.050;8.690;2023-04-03T02:39:35;3.90;99.90
22908;DHT22;11620;50.050;8.690;2023-04-03T02:42:21;3.90;99.90
22908;DHT22;11620;50.050;8.690;2023-04-03T02:45:07;3.80;99.90
22908;DHT22;11620;50.050;8.690;2023-04-03T02:47:54;3.90;99.90
22908;DHT22;11620;50.050;8.690;2023-04-03T02:50:41;3.90;99.90
22908;DHT22;11620;50.050;8.690;2023-04-03T02:53:27;3.90;99.90
22908;DHT22;11620;50.050;8.690;2023-04-03T02:56:13;3.90;99.90
22908;DHT22;11620;50.050;8.690;2023-04-03T02:59:00;3.90;99.90
22908;DHT22;11620;50.050;8.690;2023-04-03T03:01:46;3.80;99.90
22908;DHT22;11620;50.050;8.690;2023-04-03T03:04:33;3.80;99.90
22908;DHT22;11620;50.050;8.690;2023-04-03T03:07:19;3.80;99.90
22908;DHT22;11620;50.050;8.690;2023-04-03T03:10:06;3.80;99.90
22908;DHT22;11620;50.050;8.690;2023-04-03T03:12:52;3.80;99.90
22908;DHT22;11620;50.050;8.690;2023-04-03T03:15:38;3.80;99.90
22908;DHT22;11620;50.050;8.690;2023-04-03T03:18:25;3.70;99.90
22908;DHT22;11620;50.050;8.690;2023-04-03T03:21:11;3.70;99.90
22908;DHT22;11620;50.050;8.690;2023-04-03T03:23:58;3.60;99.90
22908;DHT22;11620;50.050;8.690;2023-04-03T03:26:44;3.60;99.90
22908;DHT22;11620;50.050;8.690;2023-04-03T03:29:30;3.50;99.90
22908;DHT22;11620;50.050;8.690;2023-04-03T03:32:17;3.50;99.90
22908;DHT22;11620;50.050;8.690;2023-04-03T03:35:03;3.50;99.90
22908;DHT22;11620;50.050;8.690;2023-04-03T03:37:50;3.50;99.90
22908;DHT22;11620;50.050;8.690;2023-04-03T03:40:36;3.50;99.90
22908;DHT22;11620;50.050;8.690;2023-04-03T03:43:22;3.40;99.90
22908;DHT22;11620;50.050;8.690;2023-04-03T03:46:08;3.40;99.90
22908;DHT22;11620;50.050;8.690;2023-04-03T03:48:55;3.40;99.90
22908;DHT22;11620;50.050;8.690;2023-04-03T03:51:41;3.40;99.90
22908;DHT22;11620;50.050;8.690;2023-04-03T03:54:27;3.40;99.90
22908;DHT22;11620;50.050;8.690;2023-04-03T03:57:14;3.40;99.90
22908;DHT22;11620;50.050;8.690;2023-04-03T04:00:01;3.30;99.90
22908;DHT22;11620;50.050;8.690;2023-04-03T04:02:47;3.30;99.90
22908;DHT22;11620;50.050;8.690;2023-04-03T04:05:34;3.20;99.90
22908;DHT22;11620;50.050;8.690;2023-04-03T04:08:20;3.20;99.90
22908;DHT22;11620;50.050;8.690;2023-04-03T04:11:07;3.20;99.90
22908;DHT22;11620;50.050;8.690;2023-04-03T04:13:54;3.10;99.90
22908;DHT22;11620;50.050;8.690;2023-04-03T04:16:40;3.10;99.90
22908;DHT22;11620;50.050;8.690;2023-04-03T04:19:26;3.10;99.90
22908;DHT22;11620;50.050;8.690;2023-04-03T04:22:13;3.10;99.90
22908;DHT22;11620;50.050;8.690;2023-04-03T04:24:59;3.10;99.90
22908;DHT22;11620;50.050;8.690;2023-04-03T04:27:45;3.10;99.90
22908;DHT22;11620;50.050;8.690;2023-04-03T04:30:32;3.10;99.90
22908;DHT22;11620;50.050;8.690;2023-04-03T04:33:18;3.10;99.90
22908;DHT22;11620;50.050;8.690;2023-04-03T04:36:05;3.00;99.90
22908;DHT22;11620;50.050;8.690;2023-04-03T04:38:51;3.00;99.90
22908;DHT22;11620;50.050;8.690;2023-04-03T04:41:39;3.00;99.90
22908;DHT22;11620;50.050;8.690;2023-04-03T04:44:25;2.90;99.90
22908;DHT22;11620;50.050;8.690;2023-04-03T04:47:11;2.90;99.90
22908;DHT22;11620;50.050;8.690;2023-04-03T04:49:57;2.80;99.90
22908;DHT22;11620;50.050;8.690;2023-04-03T04:52:44;2.70;99.90
22908;DHT22;11620;50.050;8.690;2023-04-03T04:55:30;2.70;99.90
22908;DHT22;11620;50.050;8.690;2023-04-03T04:58:16;2.70;99.90
22908;DHT22;11620;50.050;8.690;2023-04-03T05:01:08;2.80;99.90
22908;DHT22;11620;50.050;8.690;2023-04-03T05:03:55;2.70;99.90
22908;DHT22;11620;50.050;8.690;2023-04-03T05:06:41;2.60;99.90
22908;DHT22;11620;50.050;8.690;2023-04-03T05:09:28;2.60;99.90
22908;DHT22;11620;50.050;8.690;2023-04-03T05:12:14;2.60;99.90
22908;DHT22;11620;50.050;8.690;2023-04-03T05:15:00;2.70;99.90
22908;DHT22;11620;50.050;8.690;2023-04-03T05:17:46;2.70;99.90
22908;DHT22;11620;50.050;8.690;2023-04-03T05:20:35;2.70;99.90
22908;DHT22;11620;50.050;8.690;2023-04-03T05:23:21;2.70;99.90
22908;DHT22;11620;50.050;8.690;2023-04-03T05:26:16;2.70;99.90
22908;DHT22;11620;50.050;8.690;2023-04-03T05:29:03;2.70;99.90
22908;DHT22;11620;50.050;8.690;2023-04-03T05:31:50;2.60;99.90
22908;DHT22;11620;50.050;8.690;2023-04-03T05:34:36;2.50;99.90
22908;DHT22;11620;50.050;8.690;2023-04-03T05:37:22;2.60;99.90
22908;DHT22;11620;50.050;8.690;2023-04-03T05:40:09;2.60;99.90
22908;DHT22;11620;50.050;8.690;2023-04-03T05:42:55;2.60;99.90
22908;DHT22;11620;50.050;8.690;2023-04-03T05:45:43;2.70;99.90
22908;DHT22;11620;50.050;8.690;2023-04-03T05:48:29;2.80;99.90
22908;DHT22;11620;50.050;8.690;2023-04-03T05:51:24;2.80;99.90
22908;DHT22;11620;50.050;8.690;2023-04-03T05:54:40;2.80;99.90
22908;DHT22;11620;50.050;8.690;2023-04-03T05:57:26;2.70;99.90
22908;DHT22;11620;50.050;8.690;2023-04-03T06:00:13;2.70;99.90
22908;DHT22;11620;50.050;8.690;2023-04-03T06:03:01;2.70;99.90
22908;DHT22;11620;50.050;8.690;2023-04-03T06:05:48;3.00;99.90
22908;DHT22;11620;50.050;8.690;2023-04-03T06:08:34;3.10;99.90
22908;DHT22;11620;50.050;8.690;2023-04-03T06:11:21;3.30;99.90
22908;DHT22;11620;50.050;8.690;2023-04-03T06:14:09;3.40;99.90
22908;DHT22;11620;50.050;8.690;2023-04-03T06:16:55;3.50;99.90
22908;DHT22;11620;50.050;8.690;2023-04-03T06:19:42;3.60;99.90
22908;DHT22;11620;50.050;8.690;2023-04-03T06:22:28;3.80;99.90
22908;DHT22;11620;50.050;8.690;2023-04-03T06:25:16;3.80;99.90
22908;DHT22;11620;50.050;8.690;2023-04-03T06:28:04;3.90;99.90
22908;DHT22;11620;50.050;8.690;2023-04-03T06:30:51;4.10;99.90
22908;DHT22;11620;50.050;8.690;2023-04-03T06:33:37;4.30;99.90
22908;DHT22;11620;50.050;8.690;2023-04-03T06:36:24;4.20;99.90
22908;DHT22;11620;50.050;8.690;2023-04-03T06:39:16;4.30;99.90
22908;DHT22;11620;50.050;8.690;2023-04-03T06:42:03;4.30;99.90
22908;DHT22;11620;50.050;8.690;2023-04-03T06:44:49;4.50;99.90
22908;DHT22;11620;50.050;8.690;2023-04-03T06:47:35;4.60;99.90
22908;DHT22;11620;50.050;8.690;2023-04-03T06:50:22;4.80;99.90
22908;DHT22;11620;50.050;8.690;2023-04-03T06:53:09;4.80;99.90
22908;DHT22;11620;50.050;8.690;2023-04-03T06:55:55;5.00;99.90
22908;DHT22;11620;50.050;8.690;2023-04-03T06:58:42;5.00;99.90
22908;DHT22;11620;50.050;8.690;2023-04-03T07:01:29;5.00;99.90
22908;DHT22;11620;50.050;8.690;2023-04-03T07:04:15;5.10;99.90
22908;DHT22;11620;50.050;8.690;2023-04-03T07:07:02;5.10;99.90
22908;DHT22;11620;50.050;8.690;2023-04-03T07:09:48;5.30;99.90
22908;DHT22;11620;50.050;8.690;2023-04-03T07:12:35;5.40;99.90
22908;DHT22;11620;50.050;8.690;2023-04-03T07:15:22;5.40;99.90
22908;DHT22;11620;50.050;8.690;2023-04-03T07:18:08;5.50;99.90
22908;DHT22;11620;50.050;8.690;2023-04-03T07:20:54;5.70;99.90
22908;DHT22;11620;50.050;8.690;2023-04-03T07:23:41;5.80;99.90
22908;DHT22;11620;50.050;8.690;2023-04-03T07:26:27;5.90;99.90
22908;DHT22;11620;50.050;8.690;2023-04-03T07:29:14;6.00;99.90
22908;DHT22;11620;50.050;8.690;2023-04-03T07:32:01;6.10;99.90
22908;DHT22;11620;50.050;8.690;2023-04-03T07:34:47;6.20;99.90
22908;DHT22;11620;50.050;8.690;2023-04-03T07:37:33;6.10;99.90
22908;DHT22;11620;50.050;8.690;2023-04-03T07:40:20;6.10;99.90
22908;DHT22;11620;50.050;8.690;2023-04-03T07:43:07;6.30;99.90
22908;DHT22;11620;50.050;8.690;2023-04-03T07:45:53;6.40;99.90
22908;DHT22;11620;50.050;8.690;2023-04-03T07:48:40;6.40;99.90
22908;DHT22;11620;50.050;8.690;2023-04-03T07:51:26;6.50;99.90
22908;DHT22;11620;50.050;8.690;2023-04-03T07:54:14;6.80;99.90
22908;DHT22;11620;50.050;8.690;2023-04-03T07:57:01;7.00;99.90
22908;DHT22;11620;50.050;8.690;2023-04-03T07:59:47;7.10;99.90
22908;DHT22;11620;50.050;8.690;2023-04-03T08:02:33;7.20;99.90
22908;DHT22;11620;50.050;8.690;2023-04-03T08:05:21;7.40;99.90
22908;DHT22;11620;50.050;8.690;2023-04-03T08:08:08;7.60;99.90
22908;DHT22;11620;50.050;8.690;2023-04-03T08:10:55;7.60;99.90
22908;DHT22;11620;50.050;8.690;2023-04-03T08:13:43;7.60;99.90
22908;DHT22;11620;50.050;8.690;2023-04-03T08:16:30;7.40;99.90
22908;DHT22;11620;50.050;8.690;2023-04-03T08:19:16;7.60;99.90
22908;DHT22;11620;50.050;8.690;2023-04-03T08:22:04;7.70;99.90
22908;DHT22;11620;50.050;8.690;2023-04-03T08:24:51;7.80;99.90
22908;DHT22;11620;50.050;8.690;2023-04-03T08:27:37;8.00;99.90
22908;DHT22;11620;50.050;8.690;2023-04-03T08:30:24;8.10;99.90
22908;DHT22;11620;50.050;8.690;2023-04-03T08:33:10;8.30;99.90
22908;DHT22;11620;50.050;8.690;2023-04-03T08:35:57;8.40;99.90
22908;DHT22;11620;50.050;8.690;2023-04-03T08:38:43;8.70;99.90
22908;DHT22;11620;50.050;8.690;2023-04-03T08:47:54;8.80;99.90
22908;DHT22;11620;50.050;8.690;2023-04-03T08:50:49;9.00;99.90
22908;DHT22;11620;50.050;8.690;2023-04-03T08:53:37;9.20;99.90
22908;DHT22;11620;50.050;8.690;2023-04-03T08:56:26;9.50;99.90
22908;DHT22;11620;50.050;8.690;2023-04-03T08:59:18;9.50;99.90
22908;DHT22;11620;50.050;8.690;2023-04-03T09:02:28;9.50;99.90
22908;DHT22;11620;50.050;8.690;2023-04-03T09:05:20;9.60;99.90
22908;DHT22;11620;50.050;8.690;2023-04-03T09:12:04;9.40;99.90
22908;DHT22;11620;50.050;8.690;2023-04-03T09:21:13;8.60;99.90
22908;DHT22;11620;50.050;8.690;2023-04-03T09:24:05;8.40;99.90
22908;DHT22;11620;50.050;8.690;2023-04-03T09:27:04;8.20;99.90
22908;DHT22;11620;50.050;8.690;2023-04-03T09:29:54;8.40;99.90
22908;DHT22;11620;50.050;8.690;2023-04-03T09:32:41;8.50;99.90
22908;DHT22;11620;50.050;8.690;2023-04-03T09:35:35;8.80;99.90
22908;DHT22;11620;50.050;8.690;2023-04-03T09:38:22;9.40;99.90
22908;DHT22;11620;50.050;8.690;2023-04-03T09:41:18;9.50;99.90
22908;DHT22;11620;50.050;8.690;2023-04-03T09:44:24;8.90;99.90
22908;DHT22;11620;50.050;8.690;2023-04-03T09:47:25;8.60;99.90
22908;DHT22;11620;50.050;8.690;2023-04-03T09:53:05;9.20;99.90
22908;DHT22;11620;50.050;8.690;2023-04-03T09:55:53;9.70;99.90
22908;DHT22;11620;50.050;8.690;2023-04-03T09:58:40;9.80;99.90
22908;DHT22;11620;50.050;8.690;2023-04-03T10:01:33;10.10;99.90
22908;DHT22;11620;50.050;8.690;2023-04-03T10:04:20;10.50;99.90
22908;DHT22;11620;50.050;8.690;2023-04-03T10:07:40;10.50;99.90
22908;DHT22;11620;50.050;8.690;2023-04-03T10:10:27;10.00;99.90
22908;DHT22;11620;50.050;8.690;2023-04-03T10:13:19;10.30;99.90
22908;DHT22;11620;50.050;8.690;2023-04-03T10:16:11;10.60;99.90
22908;DHT22;11620;50.050;8.690;2023-04-03T10:22:41;10.10;99.90
22908;DHT22;11620;50.050;8.690;2023-04-03T10:25:41;10.20;99.90
22908;DHT22;11620;50.050;8.690;2023-04-03T10:31:25;10.90;99.90
22908;DHT22;11620;50.050;8.690;2023-04-03T10:34:33;11.20;99.90
22908;DHT22;11620;50.050;8.690;2023-04-03T10:46:55;10.60;99.90
22908;DHT22;11620;50.050;8.690;2023-04-03T10:53:19;10.80;99.90
22908;DHT22;11620;50.050;8.690;2023-04-03T10:56:16;11.50;99.90
22908;DHT22;11620;50.050;8.690;2023-04-03T10:59:31;11.00;99.90
22908;DHT22;11620;50.050;8.690;2023-04-03T11:02:57;11.20;99.90
22908;DHT22;11620;50.050;8.690;2023-04-03T11:05:48;11.70;99.90
22908;DHT22;11620;50.050;8.690;2023-04-03T11:08:46;11.70;99.90
22908;DHT22;11620;50.050;8.690;2023-04-03T11:11:37;11.30;99.90
22908;DHT22;11620;50.050;8.690;2023-04-03T11:14:28;10.90;99.90
22908;DHT22;11620;50.050;8.690;2023-04-03T11:20:28;11.40;99.90
22908;DHT22;11620;50.050;8.690;2023-04-03T11:23:22;11.80;99.90
22908;DHT22;11620;50.050;8.690;2023-04-03T11:26:19;11.00;99.90
22908;DHT22;11620;50.050;8.690;2023-04-03T11:29:17;10.90;99.90
22908;DHT22;11620;50.050;8.690;2023-04-03T11:35:20;10.80;99.90
22908;DHT22;11620;50.050;8.690;2023-04-03T11:38:17;10.70;99.90
22908;DHT22;11620;50.050;8.690;2023-04-03T11:41:09;10.90;99.90
22908;DHT22;11620;50.050;8.690;2023-04-03T11:44:33;11.00;99.90
22908;DHT22;11620;50.050;8.690;2023-04-03T11:47:47;10.60;99.90
22908;DHT22;11620;50.050;8.690;2023-04-03T11:53:37;10.60;99.90
22908;DHT22;11620;50.050;8.690;2023-04-03T12:01:58;11.80;99.90
22908;DHT22;11620;50.050;8.690;2023-04-03T12:11:31;11.90;99.90
22908;DHT22;11620;50.050;8.690;2023-04-03T12:14:22;11.80;99.90
22908;DHT22;11620;50.050;8.690;2023-04-03T12:17:25;11.80;99.90
22908;DHT22;11620;50.050;8.690;2023-04-03T12:20:46;12.00;99.90
22908;DHT22;11620;50.050;8.690;2023-04-03T12:23:35;12.20;99.90
22908;DHT22;11620;50.050;8.690;2023-04-03T12:26:25;12.00;99.90
22908;DHT22;11620;50.050;8.690;2023-04-03T12:41:48;12.10;99.90
22908;DHT22;11620;50.050;8.690;2023-04-03T12:47:53;12.50;99.90
22908;DHT22;11620;50.050;8.690;2023-04-03T12:50:40;12.60;99.90
22908;DHT22;11620;50.050;8.690;2023-04-03T12:53:31;12.80;99.90
22908;DHT22;11620;50.050;8.690;2023-04-03T12:56:31;12.70;99.90
22908;DHT22;11620;50.050;8.690;2023-04-03T12:59:26;12.80;99.90
22908;DHT22;11620;50.050;8.690;2023-04-03T13:02:33;13.00;99.90
22908;DHT22;11620;50.050;8.690;2023-04-03T13:05:21;13.00;99.90
22908;DHT22;11620;50.050;8.690;2023-04-03T13:08:12;13.00;99.90
22908;DHT22;11620;50.050;8.690;2023-04-03T13:14:00;13.00;99.90
22908;DHT22;11620;50.050;8.690;2023-04-03T13:17:03;13.10;99.90
22908;DHT22;11620;50.050;8.690;2023-04-03T13:19:50;13.10;99.90
22908;DHT22;11620;50.050;8.690;2023-04-03T13:22:44;12.80;99.90
22908;DHT22;11620;50.050;8.690;2023-04-03T13:25:35;12.90;99.90
22908;DHT22;11620;50.050;8.690;2023-04-03T13:28:24;13.00;99.90
22908;DHT22;11620;50.050;8.690;2023-04-03T13:34:11;13.00;99.90
22908;DHT22;11620;50.050;8.690;2023-04-03T13:37:00;12.80;99.90
22908;DHT22;11620;50.050;8.690;2023-04-03T13:40:01;12.80;99.90
22908;DHT22;11620;50.050;8.690;2023-04-03T13:43:05;12.60;99.90
22908;DHT22;11620;50.050;8.690;2023-04-03T13:46:00;12.40;99.90
22908;DHT22;11620;50.050;8.690;2023-04-03T13:48:49;12.40;99.90
22908;DHT22;11620;50.050;8.690;2023-04-03T13:51:38;12.30;99.90
22908;DHT22;11620;50.050;8.690;2023-04-03T13:54:32;12.40;99.90
22908;DHT22;11620;50.050;8.690;2023-04-03T13:57:19;12.60;99.90
22908;DHT22;11620;50.050;8.690;2023-04-03T14:06:11;11.70;99.90
22908;DHT22;11620;50.050;8.690;2023-04-03T14:08:58;11.70;99.90
22908;DHT22;11620;50.050;8.690;2023-04-03T14:11:45;11.70;99.90
22908;DHT22;11620;50.050;8.690;2023-04-03T14:14:34;11.80;99.90
22908;DHT22;11620;50.050;8.690;2023-04-03T14:17:24;11.70;99.60
22908;DHT22;11620;50.050;8.690;2023-04-03T14:20:19;11.60;99.90
22908;DHT22;11620;50.050;8.690;2023-04-03T14:23:06;11.50;99.90
22908;DHT22;11620;50.050;8.690;2023-04-03T14:25:53;11.50;99.90
22908;DHT22;11620;50.050;8.690;2023-04-03T14:28:38;11.40;99.90
22908;DHT22;11620;50.050;8.690;2023-04-03T14:31:24;11.30;99.90
22908;DHT22;11620;50.050;8.690;2023-04-03T14:34:11;11.20;99.90
22908;DHT22;11620;50.050;8.690;2023-04-03T14:36:57;11.40;99.90
22908;DHT22;11620;50.050;8.690;2023-04-03T14:39:44;11.30;99.90
22908;DHT22;11620;50.050;8.690;2023-04-03T14:42:34;11.30;99.90
22908;DHT22;11620;50.050;8.690;2023-04-03T14:45:22;11.30;99.90
22908;DHT22;11620;50.050;8.690;2023-04-03T14:48:24;11.10;99.90
22908;DHT22;11620;50.050;8.690;2023-04-03T14:51:12;10.90;99.90
22908;DHT22;11620;50.050;8.690;2023-04-03T14:53:59;10.60;99.90
22908;DHT22;11620;50.050;8.690;2023-04-03T14:56:47;10.60;99.90
22908;DHT22;11620;50.050;8.690;2023-04-03T14:59:33;10.80;99.90
22908;DHT22;11620;50.050;8.690;2023-04-03T15:02:30;10.70;99.90
22908;DHT22;11620;50.050;8.690;2023-04-03T15:05:17;10.60;99.70
22908;DHT22;11620;50.050;8.690;2023-04-03T15:08:03;10.50;99.90
22908;DHT22;11620;50.050;8.690;2023-04-03T15:10:50;10.40;99.70
22908;DHT22;11620;50.050;8.690;2023-04-03T15:13:39;10.50;99.90
22908;DHT22;11620;50.050;8.690;2023-04-03T15:16:25;10.40;99.90
22908;DHT22;11620;50.050;8.690;2023-04-03T15:19:12;10.30;99.90
22908;DHT22;11620;50.050;8.690;2023-04-03T15:21:59;10.20;99.90
22908;DHT22;11620;50.050;8.690;2023-04-03T15:24:46;10.20;99.90
22908;DHT22;11620;50.050;8.690;2023-04-03T15:27:32;10.10;99.90
22908;DHT22;11620;50.050;8.690;2023-04-03T15:30:19;10.00;99.90
22908;DHT22;11620;50.050;8.690;2023-04-03T15:33:05;10.00;99.90
22908;DHT22;11620;50.050;8.690;2023-04-03T15:35:52;9.80;99.90
22908;DHT22;11620;50.050;8.690;2023-04-03T15:38:38;9.70;99.90
22908;DHT22;11620;50.050;8.690;2023-04-03T15:41:24;9.50;99.90
22908;DHT22;11620;50.050;8.690;2023-04-03T15:44:11;9.40;99.90
22908;DHT22;11620;50.050;8.690;2023-04-03T15:46:58;9.30;99.90
22908;DHT22;11620;50.050;8.690;2023-04-03T15:49:45;9.30;99.90
22908;DHT22;11620;50.050;8.690;2023-04-03T15:52:32;9.30;99.90
22908;DHT22;11620;50.050;8.690;2023-04-03T15:55:18;9.20;99.90
22908;DHT22;11620;50.050;8.690;2023-04-03T15:58:04;9.10;99.90
22908;DHT22;11620;50.050;8.690;2023-04-03T16:00:51;9.10;99.90
22908;DHT22;11620;50.050;8.690;2023-04-03T16:03:41;9.00;99.90
22908;DHT22;11620;50.050;8.690;2023-04-03T16:06:31;8.80;99.90
22908;DHT22;11620;50.050;8.690;2023-04-03T16:09:19;8.70;99.90
22908;DHT22;11620;50.050;8.690;2023-04-03T16:12:05;8.60;99.90
22908;DHT22;11620;50.050;8.690;2023-04-03T16:14:52;8.60;99.90
22908;DHT22;11620;50.050;8.690;2023-04-03T16:17:40;8.60;99.90
22908;DHT22;11620;50.050;8.690;2023-04-03T16:20:29;8.50;99.90
22908;DHT22;11620;50.050;8.690;2023-04-03T16:23:16;8.40;99.90
22908;DHT22;11620;50.050;8.690;2023-04-03T16:26:02;8.40;99.90
22908;DHT22;11620;50.050;8.690;2023-04-03T16:28:49;8.50;99.90
22908;DHT22;11620;50.050;8.690;2023-04-03T16:31:35;8.40;99.90
22908;DHT22;11620;50.050;8.690;2023-04-03T16:34:21;8.30;99.90
22908;DHT22;11620;50.050;8.690;2023-04-03T16:37:08;8.10;99.90
22908;DHT22;11620;50.050;8.690;2023-04-03T16:39:54;8.10;99.90
22908;DHT22;11620;50.050;8.690;2023-04-03T16:42:41;8.10;99.90
22908;DHT22;11620;50.050;8.690;2023-04-03T16:45:27;8.00;99.90
22908;DHT22;11620;50.050;8.690;2023-04-03T16:48:14;7.80;99.90
22908;DHT22;11620;50.050;8.690;2023-04-03T16:51:00;7.80;99.90
22908;DHT22;11620;50.050;8.690;2023-04-03T16:53:46;7.70;99.90
22908;DHT22;11620;50.050;8.690;2023-04-03T16:56:33;7.70;99.90
22908;DHT22;11620;50.050;8.690;2023-04-03T16:59:19;7.60;99.90
22908;DHT22;11620;50.050;8.690;2023-04-03T17:02:06;7.70;99.90
22908;DHT22;11620;50.050;8.690;2023-04-03T17:04:53;7.70;99.90
22908;DHT22;11620;50.050;8.690;2023-04-03T17:07:39;7.50;99.90
22908;DHT22;11620;50.050;8.690;2023-04-03T17:10:26;7.30;99.90
22908;DHT22;11620;50.050;8.690;2023-04-03T17:13:12;7.20;99.90
22908;DHT22;11620;50.050;8.690;2023-04-03T17:15:59;7.00;99.90
22908;DHT22;11620;50.050;8.690;2023-04-03T17:18:48;7.00;99.90
22908;DHT22;11620;50.050;8.690;2023-04-03T17:21:35;7.00;99.90
22908;DHT22;11620;50.050;8.690;2023-04-03T17:24:22;6.90;99.90
22908;DHT22;11620;50.050;8.690;2023-04-03T17:27:08;6.90;99.90
22908;DHT22;11620;50.050;8.690;2023-04-03T17:29:54;6.80;99.90
22908;DHT22;11620;50.050;8.690;2023-04-03T17:32:41;6.80;99.90
22908;DHT22;11620;50.050;8.690;2023-04-03T17:35:27;6.80;99.90
22908;DHT22;11620;50.050;8.690;2023-04-03T17:38:14;6.70;99.90
22908;DHT22;11620;50.050;8.690;2023-04-03T17:41:03;6.70;99.90
22908;DHT22;11620;50.050;8.690;2023-04-03T17:43:50;6.60;99.90
22908;DHT22;11620;50.050;8.690;2023-04-03T17:46:36;6.50;99.90
22908;DHT22;11620;50.050;8.690;2023-04-03T17:49:22;6.40;99.90
22908;DHT22;11620;50.050;8.690;2023-04-03T17:52:10;6.40;99.90
22908;DHT22;11620;50.050;8.690;2023-04-03T17:54:56;6.40;99.90
22908;DHT22;11620;50.050;8.690;2023-04-03T17:57:43;6.20;99.90
22908;DHT22;11620;50.050;8.690;2023-04-03T18:00:29;6.20;99.90
22908;DHT22;11620;50.050;8.690;2023-04-03T18:03:15;6.00;99.90
22908;DHT22;11620;50.050;8.690;2023-04-03T18:06:04;5.90;99.90
22908;DHT22;11620;50.050;8.690;2023-04-03T18:08:53;5.80;99.90
22908;DHT22;11620;50.050;8.690;2023-04-03T18:11:41;5.80;99.90
22908;DHT22;11620;50.050;8.690;2023-04-03T18:14:28;5.80;99.90
22908;DHT22;11620;50.050;8.690;2023-04-03T18:17:15;5.80;99.90
22908;DHT22;11620;50.050;8.690;2023-04-03T18:20:01;5.70;99.90
22908;DHT22;11620;50.050;8.690;2023-04-03T18:22:48;5.70;99.90
22908;DHT22;11620;50.050;8.690;2023-04-03T18:25:36;5.60;99.90
22908;DHT22;11620;50.050;8.690;2023-04-03T18:28:23;5.60;99.90
22908;DHT22;11620;50.050;8.690;2023-04-03T18:31:10;5.50;99.90
22908;DHT22;11620;50.050;8.690;2023-04-03T18:34:00;5.50;99.90
22908;DHT22;11620;50.050;8.690;2023-04-03T18:36:47;5.50;99.90
22908;DHT22;11620;50.050;8.690;2023-04-03T18:39:34;5.50;99.90
22908;DHT22;11620;50.050;8.690;2023-04-03T18:42:22;5.50;99.90
22908;DHT22;11620;50.050;8.690;2023-04-03T18:45:11;5.40;99.90
22908;DHT22;11620;50.050;8.690;2023-04-03T18:47:57;5.40;99.90
22908;DHT22;11620;50.050;8.690;2023-04-03T18:50:44;5.30;99.90
22908;DHT22;11620;50.050;8.690;2023-04-03T18:53:30;5.30;99.90
22908;DHT22;11620;50.050;8.690;2023-04-03T18:56:17;5.20;99.90
22908;DHT22;11620;50.050;8.690;2023-04-03T18:59:03;5.20;99.90
22908;DHT22;11620;50.050;8.690;2023-04-03T19:01:50;5.10;99.90
22908;DHT22;11620;50.050;8.690;2023-04-03T19:04:37;5.10;99.90
22908;DHT22;11620;50.050;8.690;2023-04-03T19:07:23;5.00;99.90
22908;DHT22;11620;50.050;8.690;2023-04-03T19:10:11;4.90;99.90
22908;DHT22;11620;50.050;8.690;2023-04-03T19:13:02;4.90;99.90
22908;DHT22;11620;50.050;8.690;2023-04-03T19:15:48;4.90;99.90
22908;DHT22;11620;50.050;8.690;2023-04-03T19:18:37;4.90;99.90
22908;DHT22;11620;50.050;8.690;2023-04-03T19:21:23;4.80;99.90
22908;DHT22;11620;50.050;8.690;2023-04-03T19:24:11;4.80;99.90
22908;DHT22;11620;50.050;8.690;2023-04-03T19:26:58;4.70;99.90
22908;DHT22;11620;50.050;8.690;2023-04-03T19:29:44;4.70;99.90
22908;DHT22;11620;50.050;8.690;2023-04-03T19:32:33;4.60;99.90
22908;DHT22;11620;50.050;8.690;2023-04-03T19:35:19;4.60;99.90